createdAt,value
2018-04-22T00:01:26.547Z,100607.97
2018-04-22T00:03:54.078Z,100614.00
2018-04-22T00:06:21.642Z,100606.84
2018-04-22T00:08:49.681Z,100605.83
2018-04-22T00:11:17.250Z,100613.46
2018-04-22T00:13:45.494Z,100611.28
2018-04-22T00:16:14.834Z,100616.16
2018-04-22T00:18:43.421Z,100605.52
2018-04-22T00:21:10.995Z,100610.20
2018-04-22T00:23:38.605Z,100619.11
2018-04-22T00:26:06.132Z,100620.53
2018-04-22T00:28:33.672Z,100626.23
2018-04-22T00:31:01.678Z,100625.26
2018-04-22T00:33:29.877Z,100625.70
2018-04-22T00:35:57.984Z,100629.09
2018-04-22T00:38:25.603Z,100635.80
2018-04-22T00:40:53.563Z,100639.23
2018-04-22T00:43:22.037Z,100650.08
2018-04-22T00:45:49.568Z,100645.22
2018-04-22T00:48:17.840Z,100649.08
2018-04-22T00:50:45.443Z,100641.94
2018-04-22T00:53:13.966Z,100652.70
2018-04-22T00:55:41.487Z,100651.86
2018-04-22T00:58:09.007Z,100656.45
2018-04-22T01:00:36.593Z,100661.22
2018-04-22T01:03:05.071Z,100663.63
2018-04-22T01:05:33.173Z,100663.20
2018-04-22T01:08:00.712Z,100671.88
2018-04-22T01:10:28.247Z,100675.97
2018-04-22T01:12:57.206Z,100678.48
2018-04-22T01:15:25.515Z,100668.80
2018-04-22T01:17:53.089Z,100676.75
2018-04-22T01:20:21.346Z,100678.91
2018-04-22T01:22:48.943Z,100689.34
2018-04-22T01:25:16.479Z,100685.94
2018-04-22T01:27:44.858Z,100695.35
2018-04-22T01:30:13.619Z,100693.16
2018-04-22T01:32:41.152Z,100698.59
2018-04-22T01:35:09.925Z,100705.59
2018-04-22T01:37:37.933Z,100704.23
2018-04-22T01:40:06.035Z,100704.81
2018-04-22T01:42:33.979Z,100708.06
2018-04-22T01:45:01.511Z,100704.67
2018-04-22T01:47:29.788Z,100717.97
2018-04-22T01:49:57.338Z,100722.30
2018-04-22T01:52:26.954Z,100717.48
2018-04-22T01:54:55.258Z,100721.16
2018-04-22T01:57:22.786Z,100714.21
2018-04-22T01:59:50.329Z,100707.89
2018-04-22T02:02:17.975Z,100706.32
2018-04-22T02:04:45.491Z,100709.32
2018-04-22T02:07:13.850Z,100716.27
2018-04-22T02:09:41.383Z,100718.85
2018-04-22T02:12:08.994Z,100708.80
2018-04-22T02:14:37.348Z,100717.83
2018-04-22T02:17:04.904Z,100718.75
2018-04-22T02:19:32.439Z,100717.34
2018-04-22T02:21:59.995Z,100717.38
2018-04-22T02:24:27.514Z,100719.13
2018-04-22T02:26:55.553Z,100721.71
2018-04-22T02:29:23.831Z,100716.17
2018-04-22T02:31:51.363Z,100714.27
2018-04-22T02:34:19.047Z,100715.09
2018-04-22T02:36:46.612Z,100710.89
2018-04-22T02:39:14.346Z,100714.38
2018-04-22T02:41:42.959Z,100711.89
2018-04-22T02:44:10.593Z,100718.98
2018-04-22T02:46:38.129Z,100718.65
2018-04-22T02:49:06.577Z,100719.65
2018-04-22T02:51:34.834Z,100711.09
2018-04-22T02:54:02.367Z,100720.06
2018-04-22T02:56:29.924Z,100719.23
2018-04-22T02:58:57.482Z,100715.94
2018-04-22T03:01:25.013Z,100724.91
2018-04-22T03:03:52.555Z,100725.66
2018-04-22T03:06:20.107Z,100727.55
2018-04-22T03:08:47.647Z,100726.80
2018-04-22T03:11:15.321Z,100730.56
2018-04-22T03:13:43.840Z,100728.90
2018-04-22T03:16:11.359Z,100730.83
2018-04-22T03:18:38.878Z,100728.99
2018-04-22T03:21:06.455Z,100728.82
2018-04-22T03:23:33.979Z,100731.64
2018-04-22T03:26:02.093Z,100746.34
2018-04-22T03:28:29.624Z,100759.53
2018-04-22T03:30:57.155Z,100759.38
2018-04-22T03:33:24.751Z,100765.02
2018-04-22T03:35:52.323Z,100764.43
2018-04-22T03:38:20.740Z,100767.34
2018-04-22T03:40:49.696Z,100766.84
2018-04-22T03:43:17.734Z,100769.50
2018-04-22T03:45:45.906Z,100769.02
2018-04-22T03:48:14.816Z,100771.91
2018-04-22T03:50:43.038Z,100765.77
2018-04-22T03:53:11.355Z,100767.52
2018-04-22T03:55:38.891Z,100771.35
2018-04-22T03:58:06.442Z,100768.16
2018-04-22T04:00:34.007Z,100773.48
2018-04-22T04:03:01.526Z,100776.16
2018-04-22T04:05:29.067Z,100771.33
2018-04-22T04:07:56.675Z,100772.25
2018-04-22T04:10:24.195Z,100767.27
2018-04-22T04:12:52.771Z,100770.64
2018-04-22T04:15:20.304Z,100781.11
2018-04-22T04:21:15.591Z,100766.24
2018-04-22T04:27:12.968Z,100772.20
2018-04-22T04:29:40.526Z,100778.94
2018-04-22T04:32:08.117Z,100767.69
2018-04-22T04:34:35.663Z,100778.66
2018-04-22T04:37:03.179Z,100777.41
2018-04-22T04:39:30.698Z,100781.82
2018-04-22T04:41:59.123Z,100788.52
2018-04-22T04:44:27.242Z,100782.78
2018-04-22T04:46:54.881Z,100782.33
2018-04-22T04:49:23.311Z,100789.97
2018-04-22T04:51:51.511Z,100796.26
2018-04-22T04:54:19.155Z,100789.27
2018-04-22T04:56:46.716Z,100793.76
2018-04-22T04:59:14.430Z,100791.59
2018-04-22T05:01:41.957Z,100798.62
2018-04-22T05:04:09.628Z,100796.61
2018-04-22T05:06:37.213Z,100801.64
2018-04-22T05:09:05.436Z,100806.70
2018-04-22T05:11:32.963Z,100812.06
2018-04-22T05:14:01.472Z,100812.87
2018-04-22T05:16:28.999Z,100815.06
2018-04-22T05:18:56.626Z,100814.92
2018-04-22T05:21:24.303Z,100815.15
2018-04-22T05:23:52.447Z,100816.83
2018-04-22T05:26:20.687Z,100813.27
2018-04-22T05:28:48.210Z,100816.19
2018-04-22T05:31:15.818Z,100817.66
2018-04-22T05:33:43.539Z,100814.27
2018-04-22T05:36:11.281Z,100815.29
2018-04-22T05:38:38.807Z,100810.44
2018-04-22T05:41:06.879Z,100810.92
2018-04-22T05:43:35.182Z,100800.91
2018-04-22T05:46:02.713Z,100800.10
2018-04-22T05:48:31.216Z,100804.91
2018-04-22T05:50:59.333Z,100808.07
2018-04-22T05:53:27.431Z,100804.59
2018-04-22T05:55:55.044Z,100811.55
2018-04-22T05:58:22.628Z,100812.78
2018-04-22T06:00:50.324Z,100804.13
2018-04-22T06:03:17.865Z,100809.02
2018-04-22T06:05:45.390Z,100813.61
2018-04-22T06:08:13.212Z,100815.78
2018-04-22T06:10:40.733Z,100806.06
2018-04-22T06:13:09.359Z,100799.84
2018-04-22T06:15:36.883Z,100809.17
2018-04-22T06:18:04.440Z,100824.47
2018-04-22T06:20:32.008Z,100817.88
2018-04-22T06:23:00.327Z,100814.32
2018-04-22T06:25:27.882Z,100816.42
2018-04-22T06:27:56.573Z,100816.44
2018-04-22T06:30:24.111Z,100813.42
2018-04-22T06:32:51.635Z,100801.42
2018-04-22T06:35:19.207Z,100796.95
2018-04-22T06:37:46.753Z,100795.17
2018-04-22T06:40:15.037Z,100799.51
2018-04-22T06:42:43.113Z,100789.23
2018-04-22T06:45:10.642Z,100803.95
2018-04-22T06:47:38.935Z,100806.98
2018-04-22T06:50:07.253Z,100813.41
2018-04-22T06:52:36.361Z,100814.97
2018-04-22T06:55:03.915Z,100804.50
2018-04-22T06:57:31.473Z,100812.24
2018-04-22T06:59:59.053Z,100812.51
2018-04-22T07:02:26.715Z,100812.30
2018-04-22T07:04:54.369Z,100805.14
2018-04-22T07:07:21.988Z,100802.08
2018-04-22T07:09:50.145Z,100800.16
2018-04-22T07:12:17.706Z,100800.36
2018-04-22T07:14:46.076Z,100804.75
2018-04-22T07:17:13.754Z,100802.73
2018-04-22T07:19:41.290Z,100790.06
2018-04-22T07:22:08.858Z,100802.11
2018-04-22T07:24:37.292Z,100801.80
2018-04-22T07:27:05.460Z,100807.81
2018-04-22T07:29:32.995Z,100805.14
2018-04-22T07:32:01.096Z,100808.25
2018-04-22T07:34:28.643Z,100811.14
2018-04-22T07:36:56.595Z,100815.70
2018-04-22T07:39:24.362Z,100813.89
2018-04-22T07:41:52.456Z,100822.06
2018-04-22T07:44:20.007Z,100820.45
2018-04-22T07:46:47.528Z,100831.30
2018-04-22T07:49:16.012Z,100825.84
2018-04-22T07:51:44.434Z,100825.22
2018-04-22T07:54:11.976Z,100827.70
2018-04-22T07:56:39.544Z,100825.94
2018-04-22T07:59:07.142Z,100820.48
2018-04-22T08:01:35.174Z,100822.44
2018-04-22T08:04:02.735Z,100824.70
2018-04-22T08:06:30.260Z,100817.39
2018-04-22T08:08:57.814Z,100823.05
2018-04-22T08:11:25.353Z,100826.77
2018-04-22T08:13:53.430Z,100829.05
2018-04-22T08:16:21.006Z,100833.02
2018-04-22T08:18:48.535Z,100831.33
2018-04-22T08:21:16.133Z,100824.39
2018-04-22T08:23:43.688Z,100829.30
2018-04-22T08:26:12.250Z,100834.08
2018-04-22T08:28:39.843Z,100831.69
2018-04-22T08:31:07.935Z,100835.78
2018-04-22T08:33:36.119Z,100832.41
2018-04-22T08:36:03.656Z,100829.34
2018-04-22T08:38:31.949Z,100834.48
2018-04-22T08:41:00.016Z,100826.94
2018-04-22T08:43:28.314Z,100827.88
2018-04-22T08:45:56.023Z,100828.22
2018-04-22T08:48:24.139Z,100829.22
2018-04-22T08:50:52.268Z,100827.95
2018-04-22T08:53:20.166Z,100829.94
2018-04-22T08:55:47.717Z,100831.16
2018-04-22T08:58:15.243Z,100831.86
2018-04-22T09:00:43.453Z,100832.73
2018-04-22T09:03:11.759Z,100830.66
2018-04-22T09:05:39.412Z,100831.39
2018-04-22T09:08:06.964Z,100833.09
2018-04-22T09:10:34.757Z,100837.27
2018-04-22T09:13:02.907Z,100839.49
2018-04-22T09:15:30.430Z,100829.11
2018-04-22T09:17:57.970Z,100827.58
2018-04-22T09:20:25.626Z,100824.45
2018-04-22T09:22:53.163Z,100826.13
2018-04-22T09:25:20.694Z,100821.74
2018-04-22T09:27:49.168Z,100824.05
2018-04-22T09:30:16.701Z,100826.02
2018-04-22T09:32:44.715Z,100820.56
2018-04-22T09:35:12.908Z,100818.56
2018-04-22T09:37:40.449Z,100818.95
2018-04-22T09:40:07.988Z,100813.95
2018-04-22T09:42:36.219Z,100813.13
2018-04-22T09:45:03.779Z,100816.39
2018-04-22T09:47:32.426Z,100814.39
2018-04-22T09:50:00.297Z,100807.48
2018-04-22T09:52:28.672Z,100805.00
2018-04-22T09:54:56.376Z,100803.13
2018-04-22T09:57:23.906Z,100800.25
2018-04-22T09:59:51.467Z,100806.78
2018-04-22T10:02:24.681Z,100808.10
2018-04-22T10:04:53.147Z,100805.95
2018-04-22T10:07:20.671Z,100804.67
2018-04-22T10:09:48.201Z,100804.29
2018-04-22T10:12:15.762Z,100797.92
2018-04-22T10:14:44.121Z,100802.50
2018-04-22T10:17:11.651Z,100799.62
2018-04-22T10:19:39.189Z,100796.63
2018-04-22T10:22:06.810Z,100800.05
2018-04-22T10:24:34.343Z,100794.30
2018-04-22T10:27:02.485Z,100800.38
2018-04-22T10:29:30.939Z,100801.47
2018-04-22T10:31:59.450Z,100803.83
2018-04-22T10:34:27.107Z,100805.78
2018-04-22T10:36:56.073Z,100804.13
2018-04-22T10:39:24.681Z,100801.73
2018-04-22T10:41:53.306Z,100807.23
2018-04-22T10:44:20.825Z,100800.94
2018-04-22T10:46:48.415Z,100800.13
2018-04-22T10:49:16.882Z,100792.10
2018-04-22T10:51:45.062Z,100800.36
2018-04-22T10:54:12.654Z,100802.09
2018-04-22T10:56:40.896Z,100799.38
2018-04-22T10:59:08.509Z,100794.21
2018-04-22T11:01:36.015Z,100798.16
2018-04-22T11:04:03.590Z,100794.16
2018-04-22T11:06:31.131Z,100785.91
2018-04-22T11:08:59.508Z,100782.38
2018-04-22T11:11:27.100Z,100789.87
2018-04-22T11:13:55.055Z,100787.30
2018-04-22T11:16:22.596Z,100793.28
2018-04-22T11:18:50.319Z,100800.39
2018-04-22T11:21:17.894Z,100788.75
2018-04-22T11:23:45.548Z,100786.52
2018-04-22T11:26:13.826Z,100783.78
2018-04-22T11:28:42.759Z,100778.38
2018-04-22T11:31:10.315Z,100774.41
2018-04-22T11:33:37.955Z,100771.13
2018-04-22T11:36:05.509Z,100766.37
2018-04-22T11:38:33.038Z,100771.36
2018-04-22T11:41:01.147Z,100765.85
2018-04-22T11:43:28.850Z,100760.72
2018-04-22T11:45:56.370Z,100760.00
2018-04-22T11:48:24.642Z,100751.16
2018-04-22T11:50:52.831Z,100751.81
2018-04-22T11:53:20.918Z,100755.22
2018-04-22T11:55:48.445Z,100751.36
2018-04-22T11:58:15.978Z,100755.75
2018-04-22T12:00:45.332Z,100753.47
2018-04-22T12:03:13.194Z,100746.41
2018-04-22T12:05:40.906Z,100744.11
2018-04-22T12:08:09.182Z,100750.34
2018-04-22T12:10:36.710Z,100752.77
2018-04-22T12:13:05.163Z,100746.17
2018-04-22T12:15:32.727Z,100748.12
2018-04-22T12:18:00.263Z,100751.76
2018-04-22T12:20:28.066Z,100742.48
2018-04-22T12:22:55.595Z,100742.88
2018-04-22T12:25:23.970Z,100742.23
2018-04-22T12:27:52.450Z,100747.52
2018-04-22T12:30:19.975Z,100753.02
2018-04-22T12:32:47.516Z,100746.59
2018-04-22T12:35:15.111Z,100739.30
2018-04-22T12:37:43.052Z,100745.05
2018-04-22T12:40:10.728Z,100741.70
2018-04-22T12:42:38.792Z,100741.64
2018-04-22T12:45:06.326Z,100738.70
2018-04-22T12:47:34.418Z,100736.81
2018-04-22T12:50:02.871Z,100739.21
2018-04-22T12:52:31.234Z,100732.10
2018-04-22T12:54:58.980Z,100735.22
2018-04-22T12:57:26.507Z,100732.64
2018-04-22T12:59:54.732Z,100741.13
2018-04-22T13:02:22.266Z,100729.42
2018-04-22T13:04:49.809Z,100727.44
2018-04-22T13:07:17.379Z,100733.39
2018-04-22T13:09:45.486Z,100721.48
2018-04-22T13:12:13.675Z,100725.98
2018-04-22T13:14:41.757Z,100727.74
2018-04-22T13:17:09.320Z,100723.38
2018-04-22T13:19:36.906Z,100722.23
2018-04-22T13:22:05.322Z,100719.58
2018-04-22T13:24:32.867Z,100714.08
2018-04-22T13:27:01.164Z,100716.64
2018-04-22T13:29:29.503Z,100716.19
2018-04-22T13:31:57.097Z,100708.09
2018-04-22T13:34:24.665Z,100707.95
2018-04-22T13:36:52.200Z,100704.05
2018-04-22T13:39:19.724Z,100699.28
2018-04-22T13:41:48.009Z,100692.11
2018-04-22T13:44:15.535Z,100688.56
2018-04-22T13:46:43.712Z,100691.84
2018-04-22T13:49:11.886Z,100684.67
2018-04-22T13:51:40.035Z,100690.73
2018-04-22T13:54:07.574Z,100685.00
2018-04-22T13:56:35.129Z,100681.67
2018-04-22T13:59:02.698Z,100678.38
2018-04-22T14:01:30.227Z,100670.47
2018-04-22T14:03:57.821Z,100671.64
2018-04-22T14:06:26.254Z,100671.06
2018-04-22T14:08:54.384Z,100670.51
2018-04-22T14:11:21.948Z,100664.20
2018-04-22T14:13:49.882Z,100661.54
2018-04-22T14:16:17.409Z,100653.56
2018-04-22T14:18:44.952Z,100648.55
2018-04-22T14:21:13.123Z,100648.59
2018-04-22T14:23:40.650Z,100645.75
2018-04-22T14:26:08.746Z,100647.11
2018-04-22T14:28:36.349Z,100647.86
2018-04-22T14:31:03.931Z,100649.46
2018-04-22T14:33:31.526Z,100640.70
2018-04-22T14:35:59.279Z,100641.11
2018-04-22T14:38:26.860Z,100636.63
2018-04-22T14:40:55.225Z,100632.53
2018-04-22T14:43:22.747Z,100641.03
2018-04-22T14:46:02.125Z,100635.16
2018-04-22T14:48:30.374Z,100630.06
2018-04-22T14:50:58.703Z,100637.58
2018-04-22T14:53:27.000Z,100633.67
2018-04-22T14:55:54.530Z,100636.92
2018-04-22T14:58:22.063Z,100628.99
2018-04-22T15:00:50.379Z,100627.89
2018-04-22T15:03:17.910Z,100626.03
2018-04-22T15:05:46.242Z,100626.65
2018-04-22T15:08:14.354Z,100628.45
2018-04-22T15:10:41.898Z,100623.20
2018-04-22T15:13:10.087Z,100628.00
2018-04-22T15:15:37.623Z,100626.89
2018-04-22T15:18:05.758Z,100625.83
2018-04-22T15:20:33.308Z,100617.65
2018-04-22T15:23:01.774Z,100620.90
2018-04-22T15:25:29.436Z,100617.32
2018-04-22T15:27:57.529Z,100611.28
2018-04-22T15:30:25.105Z,100607.21
2018-04-22T15:32:52.639Z,100611.19
2018-04-22T15:35:20.194Z,100615.17
2018-04-22T15:37:47.735Z,100607.12
2018-04-22T15:40:15.259Z,100603.47
2018-04-22T15:42:43.603Z,100604.78
2018-04-22T15:45:11.200Z,100596.83
2018-04-22T15:47:39.852Z,100597.39
2018-04-22T15:50:07.982Z,100597.80
2018-04-22T15:52:35.875Z,100588.10
2018-04-22T15:55:04.227Z,100583.45
2018-04-22T15:57:31.805Z,100584.23
2018-04-22T16:00:00.055Z,100584.55
2018-04-22T16:02:27.642Z,100586.44
2018-04-22T16:04:56.001Z,100579.92
2018-04-22T16:07:23.549Z,100578.67
2018-04-22T16:09:51.500Z,100573.08
2018-04-22T16:12:19.279Z,100577.36
2018-04-22T16:14:47.361Z,100566.59
2018-04-22T16:17:14.942Z,100565.06
2018-04-22T16:19:43.113Z,100566.88
2018-04-22T16:22:10.684Z,100561.34
2018-04-22T16:24:38.220Z,100568.70
2018-04-22T16:27:07.085Z,100565.50
2018-04-22T16:29:34.615Z,100560.05
2018-04-22T16:32:02.159Z,100553.08
2018-04-22T16:34:29.868Z,100562.53
2018-04-22T16:36:57.407Z,100555.09
2018-04-22T16:39:24.983Z,100554.50
2018-04-22T16:41:53.257Z,100556.16
2018-04-22T16:44:20.791Z,100555.75
2018-04-22T16:46:48.334Z,100547.96
2018-04-22T16:49:16.827Z,100556.27
2018-04-22T16:51:45.116Z,100553.70
2018-04-22T16:54:13.427Z,100553.31
2018-04-22T16:56:40.971Z,100547.37
2018-04-22T16:59:09.028Z,100544.70
2018-04-22T17:01:36.579Z,100544.96
2018-04-22T17:04:04.112Z,100538.83
2018-04-22T17:06:32.452Z,100545.40
2018-04-22T17:09:00.794Z,100543.58
2018-04-22T17:11:28.391Z,100545.84
2018-04-22T17:13:56.696Z,100551.65
2018-04-22T17:16:24.218Z,100553.62
2018-04-22T17:18:51.783Z,100554.27
2018-04-22T17:21:19.339Z,100549.71
2018-04-22T17:23:46.870Z,100554.58
2018-04-22T17:26:15.832Z,100550.94
2018-04-22T17:28:43.773Z,100558.74
2018-04-22T17:31:11.356Z,100553.30
2018-04-22T17:33:39.039Z,100563.09
2018-04-22T17:36:06.567Z,100560.09
2018-04-22T17:38:34.692Z,100563.10
2018-04-22T17:41:02.892Z,100564.94
2018-04-22T17:43:30.420Z,100573.97
2018-04-22T17:45:58.641Z,100566.45
2018-04-22T17:48:26.715Z,100570.61
2018-04-22T17:50:55.023Z,100571.41
2018-04-22T17:53:23.325Z,100572.14
2018-04-22T17:55:51.604Z,100569.00
2018-04-22T17:58:19.865Z,100579.48
2018-04-22T18:00:47.444Z,100574.65
2018-04-22T18:03:15.096Z,100580.56
2018-04-22T18:05:43.623Z,100581.42
2018-04-22T18:08:11.835Z,100584.63
2018-04-22T18:10:39.984Z,100583.83
2018-04-22T18:13:08.335Z,100587.97
2018-04-22T18:15:35.862Z,100587.91
2018-04-22T18:18:03.403Z,100596.03
2018-04-22T18:20:30.982Z,100596.73
2018-04-22T18:22:58.710Z,100593.39
2018-04-22T18:25:26.256Z,100599.69
2018-04-22T18:27:54.291Z,100597.48
2018-04-22T18:30:21.896Z,100600.61
2018-04-22T18:32:49.425Z,100606.52
2018-04-22T18:35:17.176Z,100603.16
2018-04-22T18:37:44.827Z,100608.45
2018-04-22T18:40:13.671Z,100604.17
2018-04-22T18:42:42.027Z,100598.63
2018-04-22T18:45:09.568Z,100601.27
2018-04-22T18:47:37.571Z,100601.70
2018-04-22T18:50:05.738Z,100598.58
2018-04-22T18:52:33.807Z,100602.30
2018-04-22T18:55:02.019Z,100597.53
2018-04-22T18:57:29.586Z,100585.41
2018-04-22T18:59:57.917Z,100594.05
2018-04-22T19:02:25.451Z,100595.98
2018-04-22T19:04:53.838Z,100589.44
2018-04-22T19:07:22.195Z,100582.97
2018-04-22T19:09:50.176Z,100589.34
2018-04-22T19:12:17.714Z,100590.86
2018-04-22T19:14:45.783Z,100597.95
2018-04-22T19:17:14.268Z,100588.05
2018-04-22T19:19:41.832Z,100591.37
2018-04-22T19:22:09.354Z,100593.37
2018-04-22T19:24:38.274Z,100597.17
2018-04-22T19:27:06.142Z,100587.92
2018-04-22T19:29:33.687Z,100591.24
2018-04-22T19:32:01.217Z,100588.91
2018-04-22T19:34:28.803Z,100591.49
2018-04-22T19:36:56.327Z,100585.92
2018-04-22T19:39:23.860Z,100586.89
2018-04-22T19:41:52.559Z,100589.27
2018-04-22T19:44:20.095Z,100586.20
2018-04-22T19:46:47.783Z,100585.17
2018-04-22T19:49:16.144Z,100585.41
2018-04-22T19:51:44.518Z,100587.67
2018-04-22T19:54:12.710Z,100582.53
2018-04-22T19:56:40.358Z,100582.64
2018-04-22T19:59:07.927Z,100592.02
2018-04-22T20:01:35.516Z,100584.09
2018-04-22T20:04:03.055Z,100578.22
2018-04-22T20:06:31.280Z,100581.12
2018-04-22T20:08:58.851Z,100578.03
2018-04-22T20:11:26.382Z,100585.13
2018-04-22T20:13:54.922Z,100591.44
2018-04-22T20:16:22.453Z,100591.95
2018-04-22T20:18:49.999Z,100588.22
2018-04-22T20:21:17.554Z,100586.91
2018-04-22T20:23:45.091Z,100599.06
2018-04-22T20:26:13.602Z,100594.30
2018-04-22T20:28:41.286Z,100599.95
2018-04-22T20:31:08.819Z,100599.84
2018-04-22T20:33:36.421Z,100594.77
2018-04-22T20:36:03.954Z,100594.98
2018-04-22T20:38:31.516Z,100600.63
2018-04-22T20:40:59.767Z,100597.30
2018-04-22T20:43:27.286Z,100596.69
2018-04-22T20:45:54.846Z,100601.39
2018-04-22T20:48:23.107Z,100596.32
2018-04-22T20:50:51.144Z,100591.27
2018-04-22T20:53:19.346Z,100588.27
2018-04-22T20:55:47.255Z,100583.40
2018-04-22T20:58:15.787Z,100583.28
2018-04-22T21:00:43.459Z,100581.44
2018-04-22T21:03:11.490Z,100575.84
2018-04-22T21:05:39.730Z,100586.02
2018-04-22T21:08:08.039Z,100584.57
2018-04-22T21:10:35.593Z,100580.23
2018-04-22T21:13:04.131Z,100579.73
2018-04-22T21:15:31.658Z,100577.04
2018-04-22T21:18:00.049Z,100576.82
2018-04-22T21:20:27.585Z,100572.15
2018-04-22T21:22:55.134Z,100574.33
2018-04-22T21:25:22.698Z,100571.02
2018-04-22T21:27:50.957Z,100570.58
2018-04-22T21:30:18.509Z,100563.74
2018-04-22T21:32:46.047Z,100562.53
2018-04-22T21:35:13.754Z,100563.66
2018-04-22T21:37:41.295Z,100557.06
2018-04-22T21:40:08.829Z,100558.88
2018-04-22T21:42:36.883Z,100564.62
2018-04-22T21:45:04.442Z,100564.91
2018-04-22T21:47:32.685Z,100564.50
2018-04-22T21:50:00.989Z,100562.24
2018-04-22T21:52:29.287Z,100564.41
2018-04-22T21:54:57.443Z,100567.18
2018-04-22T21:57:25.034Z,100562.44
2018-04-22T21:59:52.578Z,100562.44
2018-04-22T22:02:20.723Z,100560.78
2018-04-22T22:04:49.115Z,100554.27
2018-04-22T22:07:16.648Z,100555.98
2018-04-22T22:09:44.407Z,100559.30
2018-04-22T22:12:11.963Z,100557.71
2018-04-22T22:14:40.311Z,100561.57
2018-04-22T22:17:07.850Z,100560.23
2018-04-22T22:19:35.600Z,100553.84
2018-04-22T22:22:03.252Z,100554.86
2018-04-22T22:24:30.857Z,100552.47
2018-04-22T22:26:59.267Z,100551.39
2018-04-22T22:29:26.794Z,100553.84
2018-04-22T22:31:54.349Z,100547.44
2018-04-22T22:34:21.922Z,100552.37
2018-04-22T22:36:50.319Z,100545.98
2018-04-22T22:39:17.858Z,100549.58
2018-04-22T22:41:46.136Z,100553.97
2018-04-22T22:44:13.818Z,100556.09
2018-04-22T22:46:41.409Z,100551.27
2018-04-22T22:49:09.632Z,100551.64
2018-04-22T22:51:37.978Z,100542.28
2018-04-22T22:54:06.267Z,100540.63
2018-04-22T22:56:33.786Z,100541.75
2018-04-22T22:59:01.983Z,100535.48
2018-04-22T23:01:29.526Z,100541.97
2018-04-22T23:03:57.094Z,100541.97
2018-04-22T23:06:25.160Z,100540.09
2018-04-22T23:08:52.723Z,100534.62
2018-04-22T23:11:20.277Z,100541.39
2018-04-22T23:13:48.790Z,100535.13
2018-04-22T23:16:16.323Z,100530.00
2018-04-22T23:18:44.005Z,100534.30
2018-04-22T23:21:11.565Z,100513.52
2018-04-22T23:23:39.101Z,100524.59
2018-04-22T23:26:07.935Z,100522.02
2018-04-22T23:28:35.492Z,100520.36
2018-04-22T23:31:03.113Z,100522.30
2018-04-22T23:33:30.712Z,100518.39
2018-04-22T23:35:58.419Z,100515.39
2018-04-22T23:38:25.963Z,100515.49
2018-04-22T23:40:54.270Z,100509.45
2018-04-22T23:43:21.802Z,100510.37
2018-04-22T23:45:49.337Z,100508.30
2018-04-22T23:48:17.764Z,100499.14
2018-04-22T23:50:46.068Z,100494.91
2018-04-22T23:53:14.357Z,100500.63
2018-04-22T23:55:42.512Z,100496.40
2018-04-22T23:58:10.051Z,100487.66
